sensor_id;sensor_type;location;lat;lon;timestamp;pressure;altitude;pressure_sealevel;temperature;humidity
45275;BME280;31019;43.780;25.948;2023-06-10T00:00:04;100543.22;;;14.34;100.00
45275;BME280;31019;43.780;25.948;2023-06-10T00:02:32;100531.06;;;14.03;100.00
45275;BME280;31019;43.780;25.948;2023-06-10T00:04:59;100537.50;;;14.42;100.00
45275;BME280;31019;43.780;25.948;2023-06-10T00:07:26;100547.63;;;14.52;100.00
45275;BME280;31019;43.780;25.948;2023-06-10T00:09:53;100530.09;;;14.44;100.00
45275;BME280;31019;43.780;25.948;2023-06-10T00:12:20;100545.19;;;14.38;100.00
45275;BME280;31019;43.780;25.948;2023-06-10T00:14:47;100547.28;;;14.25;100.00
45275;BME280;31019;43.780;25.948;2023-06-10T00:17:26;100548.31;;;14.47;100.00
45275;BME280;31019;43.780;25.948;2023-06-10T00:20:00;100537.31;;;14.32;100.00
45275;BME280;31019;43.780;25.948;2023-06-10T00:22:30;100533.31;;;14.46;100.00
45275;BME280;31019;43.780;25.948;2023-06-10T00:24:57;100534.06;;;14.06;100.00
45275;BME280;31019;43.780;25.948;2023-06-10T00:27:24;100529.16;;;14.38;100.00
45275;BME280;31019;43.780;25.948;2023-06-10T00:29:56;100531.50;;;14.23;100.00
45275;BME280;31019;43.780;25.948;2023-06-10T00:32:31;100534.25;;;14.40;100.00
45275;BME280;31019;43.780;25.948;2023-06-10T00:34:58;100532.91;;;13.79;100.00
45275;BME280;31019;43.780;25.948;2023-06-10T00:37:25;100540.94;;;14.14;100.00
45275;BME280;31019;43.780;25.948;2023-06-10T00:39:54;100546.38;;;14.19;100.00
45275;BME280;31019;43.780;25.948;2023-06-10T00:42:26;100552.41;;;14.26;100.00
45275;BME280;31019;43.780;25.948;2023-06-10T00:44:54;100551.28;;;14.22;100.00
45275;BME280;31019;43.780;25.948;2023-06-10T00:47:21;100557.88;;;14.08;100.00
45275;BME280;31019;43.780;25.948;2023-06-10T00:49:51;100549.41;;;14.11;100.00
45275;BME280;31019;43.780;25.948;2023-06-10T00:52:19;100551.34;;;14.27;100.00
45275;BME280;31019;43.780;25.948;2023-06-10T00:54:49;100543.94;;;14.17;100.00
45275;BME280;31019;43.780;25.948;2023-06-10T00:57:15;100544.06;;;14.23;100.00
45275;BME280;31019;43.780;25.948;2023-06-10T00:59:47;100535.81;;;14.12;100.00
45275;BME280;31019;43.780;25.948;2023-06-10T01:02:15;100549.50;;;14.28;100.00
45275;BME280;31019;43.780;25.948;2023-06-10T01:04:44;100542.78;;;14.13;100.00
45275;BME280;31019;43.780;25.948;2023-06-10T01:07:20;100554.28;;;14.37;100.00
45275;BME280;31019;43.780;25.948;2023-06-10T01:12:58;100547.84;;;14.50;100.00
45275;BME280;31019;43.780;25.948;2023-06-10T01:15:28;100544.16;;;14.51;100.00
45275;BME280;31019;43.780;25.948;2023-06-10T01:17:56;100550.22;;;14.23;100.00
45275;BME280;31019;43.780;25.948;2023-06-10T01:20:25;100537.66;;;13.77;100.00
45275;BME280;31019;43.780;25.948;2023-06-10T01:22:54;100542.84;;;14.42;100.00
45275;BME280;31019;43.780;25.948;2023-06-10T01:25:23;100546.34;;;14.31;100.00
45275;BME280;31019;43.780;25.948;2023-06-10T01:27:55;100543.13;;;14.17;100.00
45275;BME280;31019;43.780;25.948;2023-06-10T01:30:27;100548.59;;;13.87;100.00
45275;BME280;31019;43.780;25.948;2023-06-10T01:33:02;100550.16;;;13.41;100.00
45275;BME280;31019;43.780;25.948;2023-06-10T01:35:31;100542.63;;;13.61;100.00
45275;BME280;31019;43.780;25.948;2023-06-10T01:38:01;100530.13;;;13.97;100.00
45275;BME280;31019;43.780;25.948;2023-06-10T01:40:30;100535.00;;;14.12;100.00
45275;BME280;31019;43.780;25.948;2023-06-10T01:43:01;100530.84;;;14.04;100.00
45275;BME280;31019;43.780;25.948;2023-06-10T01:45:28;100534.31;;;14.16;100.00
45275;BME280;31019;43.780;25.948;2023-06-10T01:47:55;100527.91;;;14.17;100.00
45275;BME280;31019;43.780;25.948;2023-06-10T01:50:28;100531.75;;;14.10;100.00
45275;BME280;31019;43.780;25.948;2023-06-10T01:52:57;100538.59;;;14.17;100.00
45275;BME280;31019;43.780;25.948;2023-06-10T01:55:25;100527.13;;;14.05;100.00
45275;BME280;31019;43.780;25.948;2023-06-10T01:57:52;100536.72;;;14.30;100.00
45275;BME280;31019;43.780;25.948;2023-06-10T02:00:48;100528.59;;;14.25;100.00
45275;BME280;31019;43.780;25.948;2023-06-10T02:03:15;100528.72;;;13.94;100.00
45275;BME280;31019;43.780;25.948;2023-06-10T02:05:41;100527.13;;;13.93;100.00
45275;BME280;31019;43.780;25.948;2023-06-10T02:08:16;100530.69;;;14.23;100.00
45275;BME280;31019;43.780;25.948;2023-06-10T02:10:44;100529.66;;;13.88;100.00
45275;BME280;31019;43.780;25.948;2023-06-10T02:13:18;100537.66;;;14.35;100.00
45275;BME280;31019;43.780;25.948;2023-06-10T02:15:45;100533.31;;;14.46;100.00
45275;BME280;31019;43.780;25.948;2023-06-10T02:18:12;100538.94;;;14.09;100.00
45275;BME280;31019;43.780;25.948;2023-06-10T02:20:39;100535.59;;;14.02;100.00
45275;BME280;31019;43.780;25.948;2023-06-10T02:23:06;100534.91;;;13.95;100.00
45275;BME280;31019;43.780;25.948;2023-06-10T02:25:54;100541.28;;;14.17;100.00
45275;BME280;31019;43.780;25.948;2023-06-10T02:28:20;100540.34;;;14.12;100.00
45275;BME280;31019;43.780;25.948;2023-06-10T02:30:47;100536.13;;;14.51;100.00
45275;BME280;31019;43.780;25.948;2023-06-10T02:33:15;100541.91;;;14.48;100.00
45275;BME280;31019;43.780;25.948;2023-06-10T02:35:45;100527.69;;;13.72;100.00
45275;BME280;31019;43.780;25.948;2023-06-10T02:38:11;100542.84;;;14.42;100.00
45275;BME280;31019;43.780;25.948;2023-06-10T02:40:56;100538.66;;;14.46;100.00
45275;BME280;31019;43.780;25.948;2023-06-10T02:43:23;100539.72;;;14.57;100.00
45275;BME280;31019;43.780;25.948;2023-06-10T02:45:49;100534.25;;;14.63;100.00
45275;BME280;31019;43.780;25.948;2023-06-10T02:48:16;100545.16;;;14.74;100.00
45275;BME280;31019;43.780;25.948;2023-06-10T02:50:43;100547.41;;;14.30;100.00
45275;BME280;31019;43.780;25.948;2023-06-10T02:53:10;100543.13;;;14.29;100.00
45275;BME280;31019;43.780;25.948;2023-06-10T02:55:42;100548.19;;;14.42;100.00
45275;BME280;31019;43.780;25.948;2023-06-10T02:58:10;100540.59;;;13.98;100.00
45275;BME280;31019;43.780;25.948;2023-06-10T03:00:37;100547.28;;;14.60;100.00
45275;BME280;31019;43.780;25.948;2023-06-10T03:03:05;100555.38;;;14.77;100.00
45275;BME280;31019;43.780;25.948;2023-06-10T03:05:33;100548.44;;;14.40;100.00
45275;BME280;31019;43.780;25.948;2023-06-10T03:08:11;100551.03;;;14.00;100.00
45275;BME280;31019;43.780;25.948;2023-06-10T03:10:38;100555.28;;;14.36;100.00
45275;BME280;31019;43.780;25.948;2023-06-10T03:13:18;100562.16;;;14.44;100.00
45275;BME280;31019;43.780;25.948;2023-06-10T03:15:45;100560.97;;;14.63;100.00
45275;BME280;31019;43.780;25.948;2023-06-10T03:18:12;100557.38;;;14.58;100.00
45275;BME280;31019;43.780;25.948;2023-06-10T03:20:39;100561.91;;;14.46;100.00
45275;BME280;31019;43.780;25.948;2023-06-10T03:23:05;100569.47;;;14.60;100.00
45275;BME280;31019;43.780;25.948;2023-06-10T03:25:32;100574.41;;;14.80;100.00
45275;BME280;31019;43.780;25.948;2023-06-10T03:27:59;100568.25;;;15.08;100.00
45275;BME280;31019;43.780;25.948;2023-06-10T03:30:32;100573.78;;;15.19;100.00
45275;BME280;31019;43.780;25.948;2023-06-10T03:33:04;100567.03;;;14.99;100.00
45275;BME280;31019;43.780;25.948;2023-06-10T03:35:31;100568.69;;;15.17;100.00
45275;BME280;31019;43.780;25.948;2023-06-10T03:38:00;100570.00;;;14.86;100.00
45275;BME280;31019;43.780;25.948;2023-06-10T03:40:27;100570.81;;;15.03;100.00
45275;BME280;31019;43.780;25.948;2023-06-10T03:42:55;100570.94;;;15.08;100.00
45275;BME280;31019;43.780;25.948;2023-06-10T03:45:22;100556.28;;;15.28;100.00
45275;BME280;31019;43.780;25.948;2023-06-10T03:47:51;100554.41;;;15.40;100.00
45275;BME280;31019;43.780;25.948;2023-06-10T03:50:20;100563.72;;;15.38;100.00
45275;BME280;31019;43.780;25.948;2023-06-10T03:52:48;100568.91;;;15.44;100.00
45275;BME280;31019;43.780;25.948;2023-06-10T03:55:16;100564.63;;;15.60;100.00
45275;BME280;31019;43.780;25.948;2023-06-10T03:57:43;100559.25;;;15.60;100.00
45275;BME280;31019;43.780;25.948;2023-06-10T04:00:11;100576.09;;;15.89;100.00
45275;BME280;31019;43.780;25.948;2023-06-10T04:02:38;100569.81;;;16.00;100.00
45275;BME280;31019;43.780;25.948;2023-06-10T04:05:12;100580.22;;;15.97;100.00
45275;BME280;31019;43.780;25.948;2023-06-10T04:07:39;100582.56;;;15.93;100.00
45275;BME280;31019;43.780;25.948;2023-06-10T04:10:18;100580.31;;;16.02;100.00
45275;BME280;31019;43.780;25.948;2023-06-10T04:12:54;100575.69;;;16.36;100.00
45275;BME280;31019;43.780;25.948;2023-06-10T04:15:22;100567.09;;;16.34;100.00
45275;BME280;31019;43.780;25.948;2023-06-10T04:17:49;100575.44;;;15.99;100.00
45275;BME280;31019;43.780;25.948;2023-06-10T04:20:17;100575.56;;;16.26;100.00
45275;BME280;31019;43.780;25.948;2023-06-10T04:22:44;100583.31;;;16.44;100.00
45275;BME280;31019;43.780;25.948;2023-06-10T04:25:11;100583.91;;;16.30;100.00
45275;BME280;31019;43.780;25.948;2023-06-10T04:27:40;100580.09;;;16.64;100.00
45275;BME280;31019;43.780;25.948;2023-06-10T04:30:08;100581.13;;;16.63;100.00
45275;BME280;31019;43.780;25.948;2023-06-10T04:32:35;100583.88;;;16.68;100.00
45275;BME280;31019;43.780;25.948;2023-06-10T04:35:02;100583.69;;;16.75;100.00
45275;BME280;31019;43.780;25.948;2023-06-10T04:37:30;100589.84;;;16.92;100.00
45275;BME280;31019;43.780;25.948;2023-06-10T04:39:57;100584.84;;;17.01;100.00
45275;BME280;31019;43.780;25.948;2023-06-10T04:42:24;100573.34;;;17.06;100.00
45275;BME280;31019;43.780;25.948;2023-06-10T04:44:51;100566.97;;;17.12;100.00
45275;BME280;31019;43.780;25.948;2023-06-10T04:47:18;100570.06;;;17.26;100.00
45275;BME280;31019;43.780;25.948;2023-06-10T04:49:45;100568.28;;;17.36;100.00
45275;BME280;31019;43.780;25.948;2023-06-10T04:52:12;100579.13;;;17.47;100.00
45275;BME280;31019;43.780;25.948;2023-06-10T04:54:40;100566.84;;;17.56;100.00
45275;BME280;31019;43.780;25.948;2023-06-10T04:57:20;100574.97;;;17.66;100.00
45275;BME280;31019;43.780;25.948;2023-06-10T04:59:47;100566.16;;;17.71;100.00
45275;BME280;31019;43.780;25.948;2023-06-10T05:02:15;100567.22;;;18.02;100.00
45275;BME280;31019;43.780;25.948;2023-06-10T05:04:42;100568.38;;;18.16;100.00
45275;BME280;31019;43.780;25.948;2023-06-10T05:07:10;100566.63;;;17.95;100.00
45275;BME280;31019;43.780;25.948;2023-06-10T05:09:37;100561.31;;;18.05;100.00
45275;BME280;31019;43.780;25.948;2023-06-10T05:12:13;100566.34;;;18.34;100.00
45275;BME280;31019;43.780;25.948;2023-06-10T05:14:52;100566.34;;;18.34;100.00
45275;BME280;31019;43.780;25.948;2023-06-10T05:17:19;100573.16;;;18.57;100.00
45275;BME280;31019;43.780;25.948;2023-06-10T05:19:46;100572.66;;;18.65;100.00
45275;BME280;31019;43.780;25.948;2023-06-10T05:22:13;100564.28;;;18.56;100.00
45275;BME280;31019;43.780;25.948;2023-06-10T05:24:41;100564.75;;;19.11;100.00
45275;BME280;31019;43.780;25.948;2023-06-10T05:27:09;100569.59;;;19.09;100.00
45275;BME280;31019;43.780;25.948;2023-06-10T05:29:44;100565.31;;;19.33;100.00
45275;BME280;31019;43.780;25.948;2023-06-10T05:32:12;100568.31;;;19.52;100.00
45275;BME280;31019;43.780;25.948;2023-06-10T05:34:39;100564.75;;;19.01;100.00
45275;BME280;31019;43.780;25.948;2023-06-10T05:37:05;100578.53;;;19.50;100.00
45275;BME280;31019;43.780;25.948;2023-06-10T05:39:32;100572.63;;;19.43;100.00
45275;BME280;31019;43.780;25.948;2023-06-10T05:42:03;100582.06;;;19.66;100.00
45275;BME280;31019;43.780;25.948;2023-06-10T05:44:30;100572.09;;;19.72;100.00
45275;BME280;31019;43.780;25.948;2023-06-10T05:46:58;100565.06;;;20.06;100.00
45275;BME280;31019;43.780;25.948;2023-06-10T05:49:37;100566.91;;;20.31;100.00
45275;BME280;31019;43.780;25.948;2023-06-10T05:52:15;100564.19;;;20.31;100.00
45275;BME280;31019;43.780;25.948;2023-06-10T05:54:44;100560.31;;;20.68;100.00
45275;BME280;31019;43.780;25.948;2023-06-10T05:57:11;100571.03;;;20.78;100.00
45275;BME280;31019;43.780;25.948;2023-06-10T05:59:38;100572.06;;;20.12;100.00
45275;BME280;31019;43.780;25.948;2023-06-10T06:02:06;100567.91;;;20.51;100.00
45275;BME280;31019;43.780;25.948;2023-06-10T06:04:33;100570.56;;;20.66;100.00
45275;BME280;31019;43.780;25.948;2023-06-10T06:07:11;100569.56;;;21.07;100.00
45275;BME280;31019;43.780;25.948;2023-06-10T06:09:38;100568.06;;;20.85;100.00
45275;BME280;31019;43.780;25.948;2023-06-10T06:12:06;100578.84;;;20.85;100.00
45275;BME280;31019;43.780;25.948;2023-06-10T06:14:38;100579.63;;;21.40;100.00
45275;BME280;31019;43.780;25.948;2023-06-10T06:17:07;100578.06;;;21.24;100.00
45275;BME280;31019;43.780;25.948;2023-06-10T06:19:36;100576.56;;;21.08;100.00
45275;BME280;31019;43.780;25.948;2023-06-10T06:22:12;100575.09;;;21.25;100.00
45275;BME280;31019;43.780;25.948;2023-06-10T06:24:39;100583.78;;;21.22;100.00
45275;BME280;31019;43.780;25.948;2023-06-10T06:27:06;100584.09;;;21.16;100.00
45275;BME280;31019;43.780;25.948;2023-06-10T06:29:39;100573.41;;;21.35;100.00
45275;BME280;31019;43.780;25.948;2023-06-10T06:32:10;100572.38;;;21.31;100.00
45275;BME280;31019;43.780;25.948;2023-06-10T06:34:37;100574.19;;;21.45;100.00
45275;BME280;31019;43.780;25.948;2023-06-10T06:37:04;100575.22;;;21.55;100.00
45275;BME280;31019;43.780;25.948;2023-06-10T06:39:31;100570.75;;;21.30;100.00
45275;BME280;31019;43.780;25.948;2023-06-10T06:41:58;100566.09;;;21.45;100.00
45275;BME280;31019;43.780;25.948;2023-06-10T06:44:25;100573.09;;;21.02;100.00
45275;BME280;31019;43.780;25.948;2023-06-10T06:46:53;100563.16;;;20.92;100.00
45275;BME280;31019;43.780;25.948;2023-06-10T06:49:21;100564.53;;;20.85;100.00
45275;BME280;31019;43.780;25.948;2023-06-10T06:51:48;100567.13;;;21.49;100.00
45275;BME280;31019;43.780;25.948;2023-06-10T06:54:15;100567.09;;;21.55;100.00
45275;BME280;31019;43.780;25.948;2023-06-10T06:56:42;100559.72;;;21.60;100.00
45275;BME280;31019;43.780;25.948;2023-06-10T06:59:10;100556.84;;;21.81;100.00
45275;BME280;31019;43.780;25.948;2023-06-10T07:01:39;100561.19;;;21.47;100.00
45275;BME280;31019;43.780;25.948;2023-06-10T07:04:20;100550.13;;;21.78;100.00
45275;BME280;31019;43.780;25.948;2023-06-10T07:06:48;100549.53;;;21.81;100.00
45275;BME280;31019;43.780;25.948;2023-06-10T07:09:27;100551.53;;;21.76;100.00
45275;BME280;31019;43.780;25.948;2023-06-10T07:11:54;100556.81;;;21.86;100.00
45275;BME280;31019;43.780;25.948;2023-06-10T07:14:21;100551.94;;;21.88;100.00
45275;BME280;31019;43.780;25.948;2023-06-10T07:16:49;100550.53;;;21.90;100.00
45275;BME280;31019;43.780;25.948;2023-06-10T07:19:27;100555.38;;;21.93;100.00
45275;BME280;31019;43.780;25.948;2023-06-10T07:21:54;100562.69;;;21.64;100.00
45275;BME280;31019;43.780;25.948;2023-06-10T07:24:28;100554.22;;;21.76;100.00
45275;BME280;31019;43.780;25.948;2023-06-10T07:27:05;100563.50;;;21.64;100.00
45275;BME280;31019;43.780;25.948;2023-06-10T07:29:32;100555.97;;;22.14;100.00
45275;BME280;31019;43.780;25.948;2023-06-10T07:32:01;100551.78;;;22.03;100.00
45275;BME280;31019;43.780;25.948;2023-06-10T07:34:30;100559.53;;;21.86;100.00
45275;BME280;31019;43.780;25.948;2023-06-10T07:36:56;100565.75;;;21.81;100.00
45275;BME280;31019;43.780;25.948;2023-06-10T07:39:25;100560.75;;;21.99;100.00
45275;BME280;31019;43.780;25.948;2023-06-10T07:41:52;100556.66;;;22.30;100.00
45275;BME280;31019;43.780;25.948;2023-06-10T07:44:29;100556.59;;;22.35;100.00
45275;BME280;31019;43.780;25.948;2023-06-10T07:46:57;100561.81;;;22.27;100.00
45275;BME280;31019;43.780;25.948;2023-06-10T07:49:31;100555.56;;;22.02;100.00
45275;BME280;31019;43.780;25.948;2023-06-10T07:52:07;100561.41;;;22.62;100.00
45275;BME280;31019;43.780;25.948;2023-06-10T07:54:40;100550.94;;;22.99;100.00
45275;BME280;31019;43.780;25.948;2023-06-10T07:57:07;100549.41;;;22.26;100.00
45275;BME280;31019;43.780;25.948;2023-06-10T07:59:35;100557.38;;;23.03;100.00
45275;BME280;31019;43.780;25.948;2023-06-10T08:02:21;100550.94;;;22.75;100.00
45275;BME280;31019;43.780;25.948;2023-06-10T08:04:49;100546.91;;;22.72;100.00
45275;BME280;31019;43.780;25.948;2023-06-10T08:07:16;100559.13;;;22.94;100.00
45275;BME280;31019;43.780;25.948;2023-06-10T08:09:43;100549.59;;;22.53;100.00
45275;BME280;31019;43.780;25.948;2023-06-10T08:12:12;100554.16;;;23.20;100.00
45275;BME280;31019;43.780;25.948;2023-06-10T08:14:39;100549.78;;;22.81;100.00
45275;BME280;31019;43.780;25.948;2023-06-10T08:17:06;100556.91;;;23.15;100.00
45275;BME280;31019;43.780;25.948;2023-06-10T08:19:36;100551.47;;;23.99;100.00
45275;BME280;31019;43.780;25.948;2023-06-10T08:22:04;100547.53;;;23.77;100.00
45275;BME280;31019;43.780;25.948;2023-06-10T08:24:32;100551.50;;;23.34;100.00
45275;BME280;31019;43.780;25.948;2023-06-10T08:27:02;100542.78;;;22.80;100.00
45275;BME280;31019;43.780;25.948;2023-06-10T08:29:29;100546.91;;;23.48;100.00
45275;BME280;31019;43.780;25.948;2023-06-10T08:31:57;100544.63;;;23.74;100.00
45275;BME280;31019;43.780;25.948;2023-06-10T08:34:25;100547.75;;;23.48;100.00
45275;BME280;31019;43.780;25.948;2023-06-10T08:36:51;100542.34;;;23.29;100.00
45275;BME280;31019;43.780;25.948;2023-06-10T08:39:22;100545.69;;;22.83;100.00
45275;BME280;31019;43.780;25.948;2023-06-10T08:41:57;100544.47;;;23.14;100.00
45275;BME280;31019;43.780;25.948;2023-06-10T08:44:28;100549.34;;;22.93;100.00
45275;BME280;31019;43.780;25.948;2023-06-10T08:46:59;100544.03;;;23.25;100.00
45275;BME280;31019;43.780;25.948;2023-06-10T08:49:27;100546.88;;;22.77;100.00
45275;BME280;31019;43.780;25.948;2023-06-10T08:51:59;100536.94;;;22.73;100.00
45275;BME280;31019;43.780;25.948;2023-06-10T08:54:32;100537.19;;;22.95;100.00
45275;BME280;31019;43.780;25.948;2023-06-10T08:57:01;100538.16;;;22.80;100.00
45275;BME280;31019;43.780;25.948;2023-06-10T08:59:31;100543.59;;;22.99;100.00
45275;BME280;31019;43.780;25.948;2023-06-10T09:01:58;100538.50;;;22.98;100.00
45275;BME280;31019;43.780;25.948;2023-06-10T09:04:30;100531.25;;;23.12;100.00
45275;BME280;31019;43.780;25.948;2023-06-10T09:06:58;100530.91;;;23.32;100.00
45275;BME280;31019;43.780;25.948;2023-06-10T09:09:29;100531.19;;;22.93;100.00
45275;BME280;31019;43.780;25.948;2023-06-10T09:11:56;100527.66;;;23.49;100.00
45275;BME280;31019;43.780;25.948;2023-06-10T09:14:23;100531.19;;;23.50;100.00
45275;BME280;31019;43.780;25.948;2023-06-10T09:16:50;100521.94;;;23.84;100.00
45275;BME280;31019;43.780;25.948;2023-06-10T09:19:17;100520.66;;;24.36;100.00
45275;BME280;31019;43.780;25.948;2023-06-10T09:21:46;100515.22;;;24.50;100.00
45275;BME280;31019;43.780;25.948;2023-06-10T09:24:13;100516.06;;;24.87;100.00
45275;BME280;31019;43.780;25.948;2023-06-10T09:26:43;100517.06;;;24.55;100.00
45275;BME280;31019;43.780;25.948;2023-06-10T09:29:18;100508.78;;;24.32;100.00
45275;BME280;31019;43.780;25.948;2023-06-10T09:31:45;100509.31;;;24.07;100.00
45275;BME280;31019;43.780;25.948;2023-06-10T09:34:13;100510.69;;;24.32;100.00
45275;BME280;31019;43.780;25.948;2023-06-10T09:36:42;100500.88;;;24.22;100.00
45275;BME280;31019;43.780;25.948;2023-06-10T09:39:14;100505.16;;;25.01;100.00
45275;BME280;31019;43.780;25.948;2023-06-10T09:41:44;100505.50;;;25.22;100.00
45275;BME280;31019;43.780;25.948;2023-06-10T09:44:12;100498.78;;;25.50;100.00
45275;BME280;31019;43.780;25.948;2023-06-10T09:46:41;100503.31;;;25.32;100.00
45275;BME280;31019;43.780;25.948;2023-06-10T09:49:10;100490.44;;;26.09;100.00
45275;BME280;31019;43.780;25.948;2023-06-10T09:51:37;100485.13;;;26.61;100.00
45275;BME280;31019;43.780;25.948;2023-06-10T09:54:04;100495.34;;;26.47;100.00
45275;BME280;31019;43.780;25.948;2023-06-10T09:56:34;100499.00;;;25.54;100.00
45275;BME280;31019;43.780;25.948;2023-06-10T09:59:09;100491.72;;;26.03;100.00
45275;BME280;31019;43.780;25.948;2023-06-10T10:01:42;100481.25;;;26.36;100.00
45275;BME280;31019;43.780;25.948;2023-06-10T10:04:23;100488.03;;;27.00;100.00
45275;BME280;31019;43.780;25.948;2023-06-10T10:06:57;100476.66;;;26.63;100.00
45275;BME280;31019;43.780;25.948;2023-06-10T10:09:32;100483.88;;;27.84;100.00
45275;BME280;31019;43.780;25.948;2023-06-10T10:12:13;100476.72;;;28.00;100.00
45275;BME280;31019;43.780;25.948;2023-06-10T10:14:45;100479.44;;;27.53;100.00
45275;BME280;31019;43.780;25.948;2023-06-10T10:17:15;100483.25;;;27.78;100.00
45275;BME280;31019;43.780;25.948;2023-06-10T10:19:46;100479.00;;;27.90;100.00
45275;BME280;31019;43.780;25.948;2023-06-10T10:22:18;100480.44;;;27.40;100.00
45275;BME280;31019;43.780;25.948;2023-06-10T10:24:49;100475.75;;;27.58;100.00
45275;BME280;31019;43.780;25.948;2023-06-10T10:27:27;100480.97;;;27.80;100.00
45275;BME280;31019;43.780;25.948;2023-06-10T10:29:58;100467.81;;;26.75;100.00
45275;BME280;31019;43.780;25.948;2023-06-10T10:32:29;100470.69;;;28.16;100.00
45275;BME280;31019;43.780;25.948;2023-06-10T10:35:04;100463.50;;;28.41;100.00
45275;BME280;31019;43.780;25.948;2023-06-10T10:37:34;100462.69;;;27.25;100.00
45275;BME280;31019;43.780;25.948;2023-06-10T10:40:14;100446.75;;;27.92;100.00
45275;BME280;31019;43.780;25.948;2023-06-10T10:42:42;100457.72;;;27.18;100.00
45275;BME280;31019;43.780;25.948;2023-06-10T10:45:11;100452.69;;;27.94;100.00
45275;BME280;31019;43.780;25.948;2023-06-10T10:47:58;100449.69;;;27.22;100.00
45275;BME280;31019;43.780;25.948;2023-06-10T10:50:30;100438.50;;;28.00;100.00
45275;BME280;31019;43.780;25.948;2023-06-10T10:52:59;100433.59;;;27.47;97.31
45275;BME280;31019;43.780;25.948;2023-06-10T10:55:27;100433.13;;;28.13;100.00
45275;BME280;31019;43.780;25.948;2023-06-10T10:57:55;100433.66;;;28.57;100.00
45275;BME280;31019;43.780;25.948;2023-06-10T11:00:31;100437.22;;;27.59;100.00
45275;BME280;31019;43.780;25.948;2023-06-10T11:03:03;100434.03;;;26.76;100.00
45275;BME280;31019;43.780;25.948;2023-06-10T11:05:38;100428.97;;;27.77;99.47
45275;BME280;31019;43.780;25.948;2023-06-10T11:08:05;100428.69;;;28.08;99.66
45275;BME280;31019;43.780;25.948;2023-06-10T11:10:35;100427.56;;;27.71;100.00
45275;BME280;31019;43.780;25.948;2023-06-10T11:13:07;100417.09;;;28.32;100.00
45275;BME280;31019;43.780;25.948;2023-06-10T11:15:43;100417.22;;;28.44;93.78
45275;BME280;31019;43.780;25.948;2023-06-10T11:18:20;100413.81;;;29.02;91.73
45275;BME280;31019;43.780;25.948;2023-06-10T11:20:59;100423.00;;;28.13;99.54
45275;BME280;31019;43.780;25.948;2023-06-10T11:23:39;100406.88;;;28.50;100.00
45275;BME280;31019;43.780;25.948;2023-06-10T11:26:16;100409.28;;;27.62;99.98
45275;BME280;31019;43.780;25.948;2023-06-10T11:29:07;100409.19;;;27.89;92.58
45275;BME280;31019;43.780;25.948;2023-06-10T11:31:45;100398.16;;;27.76;100.00
45275;BME280;31019;43.780;25.948;2023-06-10T11:34:24;100403.47;;;28.11;97.87
45275;BME280;31019;43.780;25.948;2023-06-10T11:36:52;100400.13;;;28.05;95.95
45275;BME280;31019;43.780;25.948;2023-06-10T11:39:20;100388.38;;;27.46;92.39
45275;BME280;31019;43.780;25.948;2023-06-10T11:41:50;100391.50;;;27.56;100.00
45275;BME280;31019;43.780;25.948;2023-06-10T11:44:18;100381.94;;;28.09;96.14
45275;BME280;31019;43.780;25.948;2023-06-10T11:46:47;100391.53;;;28.37;91.40
45275;BME280;31019;43.780;25.948;2023-06-10T11:49:15;100392.88;;;29.06;97.70
45275;BME280;31019;43.780;25.948;2023-06-10T11:51:43;100382.59;;;28.27;86.69
45275;BME280;31019;43.780;25.948;2023-06-10T11:54:14;100379.09;;;28.27;96.57
45275;BME280;31019;43.780;25.948;2023-06-10T11:56:42;100384.28;;;28.95;90.84
45275;BME280;31019;43.780;25.948;2023-06-10T11:59:09;100377.03;;;27.64;100.00
45275;BME280;31019;43.780;25.948;2023-06-10T12:01:38;100366.53;;;28.26;93.74
45275;BME280;31019;43.780;25.948;2023-06-10T12:04:10;100371.28;;;28.38;87.17
45275;BME280;31019;43.780;25.948;2023-06-10T12:06:39;100366.44;;;27.72;88.00
45275;BME280;31019;43.780;25.948;2023-06-10T12:09:06;100364.41;;;28.31;96.02
45275;BME280;31019;43.780;25.948;2023-06-10T12:11:34;100357.69;;;28.50;86.76
45275;BME280;31019;43.780;25.948;2023-06-10T12:14:01;100357.25;;;28.06;92.40
45275;BME280;31019;43.780;25.948;2023-06-10T12:16:28;100359.97;;;29.02;79.34
45275;BME280;31019;43.780;25.948;2023-06-10T12:19:01;100372.41;;;27.95;96.67
45275;BME280;31019;43.780;25.948;2023-06-10T12:21:31;100353.72;;;28.47;86.34
45275;BME280;31019;43.780;25.948;2023-06-10T12:24:08;100362.72;;;29.39;73.90
45275;BME280;31019;43.780;25.948;2023-06-10T12:26:44;100355.09;;;29.32;71.48
45275;BME280;31019;43.780;25.948;2023-06-10T12:29:18;100348.25;;;29.51;56.39
45275;BME280;31019;43.780;25.948;2023-06-10T12:31:56;100343.00;;;29.45;56.75
45275;BME280;31019;43.780;25.948;2023-06-10T12:34:35;100352.41;;;28.53;61.17
45275;BME280;31019;43.780;25.948;2023-06-10T12:37:06;100342.38;;;28.91;78.82
45275;BME280;31019;43.780;25.948;2023-06-10T12:39:51;100341.75;;;28.73;62.63
45275;BME280;31019;43.780;25.948;2023-06-10T12:42:21;100340.44;;;28.37;74.53
45275;BME280;31019;43.780;25.948;2023-06-10T12:44:53;100336.47;;;28.14;70.73
45275;BME280;31019;43.780;25.948;2023-06-10T12:47:29;100332.41;;;29.56;61.38